Portada
METAR-TAF:

METAR-TAF

Aeropuertos :

Aeropuerto Internacional Indira Gandhi

Nueva Delhi, India

latitud: 28-34N, longitud: 077-07E, altitud: 220 m

Observación

El informe se hizo hace 30 minutos, a las 03:00 UTC
Viento 4 kt del oeste-suroeste
Temperatura 20°C
Humedad 60%
Presión 1016 hPa
Visibilidad: 2500 m
calima

METAR: VIDP 220300Z 25004KT 2500 HZ NSC 20/12 Q1016 NOSIG

Hora: 09:00 (03:30 UTC)

Pronóstico

El informe se hizo hace 1 hora y 30 minutos, a las 02:00 UTC
Pronóstico válido del 22 a las 03 UTC al 22 a las 12 UTC
Viento 4 kt del oeste
Visibilidad: 2000 m
Escasas nubes a una altura de 10000 ft
neblina
Evolucionando progresivamente
del 22 a las 05 UTC al 22 a las 07 UTC
Viento 6 kt del oeste-noroeste
Visibilidad: 4000 m
Nubes dispersas a una altura de 10000 ft
calima

TAF: VIDP 220200Z 2203/2212 26004KT 2000 BR FEW100 BECMG 2205/2207 30006KT 4000 HZ SCT100

Observaciones y pronósticos meteorológicos de más de 4000 aeropuertos (mensajes METAR y TAF).

Los puntos amarillos y rojos representan las estaciones disponibles.

Ponga el ratón en el punto deseado para ver el nombre de la estación.

Haga clic para ver las observaciones y los pronósticos meteorológicos.

Para cambiar el mapa : haga clic en los botones verdes con una cruz de color negro para hacer un zoom, en el botón verde con un guión para alejar o en las flechas verdes para mapas adyacentes.


METAR-TAF: